sensor_id;sensor_type;location;lat;lon;timestamp;pressure;altitude;pressure_sealevel;temperature;humidity
43298;BME280;28892;55.640;37.532;2022-07-17T00:00:42;98694.25;;;17.36;58.33
43298;BME280;28892;55.640;37.532;2022-07-17T00:03:12;98697.75;;;17.37;58.44
43298;BME280;28892;55.640;37.532;2022-07-17T00:05:39;98704.63;;;17.33;58.11
43298;BME280;28892;55.640;37.532;2022-07-17T00:08:08;98704.97;;;17.36;58.17
43298;BME280;28892;55.640;37.532;2022-07-17T00:10:35;98697.31;;;17.28;58.04
43298;BME280;28892;55.640;37.532;2022-07-17T00:13:02;98695.13;;;17.25;57.98
43298;BME280;28892;55.640;37.532;2022-07-17T00:15:28;98694.06;;;17.26;57.79
43298;BME280;28892;55.640;37.532;2022-07-17T00:17:54;98689.75;;;17.25;57.86
43298;BME280;28892;55.640;37.532;2022-07-17T00:20:20;98695.91;;;17.25;57.81
43298;BME280;28892;55.640;37.532;2022-07-17T00:22:46;98696.59;;;17.33;57.25
43298;BME280;28892;55.640;37.532;2022-07-17T00:25:12;98692.88;;;17.34;57.16
43298;BME280;28892;55.640;37.532;2022-07-17T00:27:39;98694.00;;;17.38;56.94
43298;BME280;28892;55.640;37.532;2022-07-17T00:30:05;98693.69;;;17.34;57.32
43298;BME280;28892;55.640;37.532;2022-07-17T00:32:33;98695.69;;;17.27;58.07
43298;BME280;28892;55.640;37.532;2022-07-17T00:34:58;98690.56;;;17.25;57.77
43298;BME280;28892;55.640;37.532;2022-07-17T00:37:24;98693.72;;;17.22;58.04
43298;BME280;28892;55.640;37.532;2022-07-17T00:39:50;98694.53;;;17.23;57.88
43298;BME280;28892;55.640;37.532;2022-07-17T00:42:17;98688.03;;;17.18;58.16
43298;BME280;28892;55.640;37.532;2022-07-17T00:44:43;98690.00;;;17.23;58.23
43298;BME280;28892;55.640;37.532;2022-07-17T00:47:18;98691.66;;;17.41;59.06
43298;BME280;28892;55.640;37.532;2022-07-17T00:49:45;98691.16;;;17.44;58.71
43298;BME280;28892;55.640;37.532;2022-07-17T00:52:12;98688.38;;;17.51;58.38
43298;BME280;28892;55.640;37.532;2022-07-17T00:54:39;98695.78;;;17.61;58.16
43298;BME280;28892;55.640;37.532;2022-07-17T00:57:08;98693.16;;;17.66;58.19
43298;BME280;28892;55.640;37.532;2022-07-17T00:59:34;98699.28;;;17.62;58.49
43298;BME280;28892;55.640;37.532;2022-07-17T01:02:11;98700.81;;;17.74;58.72
43298;BME280;28892;55.640;37.532;2022-07-17T01:04:38;98693.03;;;17.73;58.02
43298;BME280;28892;55.640;37.532;2022-07-17T01:07:06;98699.19;;;17.73;58.62
43298;BME280;28892;55.640;37.532;2022-07-17T01:09:33;98692.84;;;17.63;58.40
43298;BME280;28892;55.640;37.532;2022-07-17T01:11:59;98693.06;;;17.44;58.58
43298;BME280;28892;55.640;37.532;2022-07-17T01:14:25;98702.63;;;17.40;58.50
43298;BME280;28892;55.640;37.532;2022-07-17T01:16:52;98699.75;;;17.29;58.99
43298;BME280;28892;55.640;37.532;2022-07-17T01:19:19;98702.69;;;17.28;59.40
43298;BME280;28892;55.640;37.532;2022-07-17T01:21:47;98704.88;;;17.31;59.33
43298;BME280;28892;55.640;37.532;2022-07-17T01:24:13;98707.47;;;17.26;59.24
43298;BME280;28892;55.640;37.532;2022-07-17T01:26:47;98710.38;;;17.24;59.87
43298;BME280;28892;55.640;37.532;2022-07-17T01:29:15;98717.41;;;17.13;59.59
43298;BME280;28892;55.640;37.532;2022-07-17T01:31:42;98709.03;;;17.10;59.30
43298;BME280;28892;55.640;37.532;2022-07-17T01:34:09;98717.41;;;17.13;58.84
43298;BME280;28892;55.640;37.532;2022-07-17T01:36:35;98715.78;;;17.12;58.93
43298;BME280;28892;55.640;37.532;2022-07-17T01:39:02;98715.88;;;17.17;58.61
43298;BME280;28892;55.640;37.532;2022-07-17T01:41:29;98715.88;;;17.17;58.39
43298;BME280;28892;55.640;37.532;2022-07-17T01:43:55;98721.22;;;17.17;58.41
43298;BME280;28892;55.640;37.532;2022-07-17T01:46:21;98720.41;;;17.17;58.90
43298;BME280;28892;55.640;37.532;2022-07-17T01:48:47;98721.59;;;17.09;59.72
43298;BME280;28892;55.640;37.532;2022-07-17T01:51:12;98719.97;;;17.08;60.57
43298;BME280;28892;55.640;37.532;2022-07-17T01:53:38;98720.31;;;17.12;60.88
43298;BME280;28892;55.640;37.532;2022-07-17T01:56:04;98720.66;;;17.15;60.29
43298;BME280;28892;55.640;37.532;2022-07-17T01:58:30;98718.91;;;17.21;60.67
43298;BME280;28892;55.640;37.532;2022-07-17T02:00:56;98720.16;;;17.30;61.17
43298;BME280;28892;55.640;37.532;2022-07-17T02:03:22;98721.25;;;17.47;60.29
43298;BME280;28892;55.640;37.532;2022-07-17T02:05:48;98718.50;;;17.58;60.34
43298;BME280;28892;55.640;37.532;2022-07-17T02:08:13;98717.19;;;17.44;61.37
43298;BME280;28892;55.640;37.532;2022-07-17T02:10:39;98719.25;;;17.25;60.81
43298;BME280;28892;55.640;37.532;2022-07-17T02:13:05;98719.69;;;17.22;60.78
43298;BME280;28892;55.640;37.532;2022-07-17T02:15:50;98714.97;;;17.12;61.40
43298;BME280;28892;55.640;37.532;2022-07-17T02:18:16;98714.25;;;17.16;61.06
43298;BME280;28892;55.640;37.532;2022-07-17T02:20:42;98709.25;;;17.08;61.25
43298;BME280;28892;55.640;37.532;2022-07-17T02:23:12;98713.69;;;17.02;61.13
43298;BME280;28892;55.640;37.532;2022-07-17T02:25:37;98718.59;;;16.94;61.69
43298;BME280;28892;55.640;37.532;2022-07-17T02:28:05;98717.41;;;16.89;61.84
43298;BME280;28892;55.640;37.532;2022-07-17T02:30:31;98722.31;;;16.93;61.67
43298;BME280;28892;55.640;37.532;2022-07-17T02:32:56;98716.63;;;16.89;61.97
43298;BME280;28892;55.640;37.532;2022-07-17T02:35:22;98720.69;;;16.92;62.09
43298;BME280;28892;55.640;37.532;2022-07-17T02:37:48;98715.91;;;16.94;61.64
43298;BME280;28892;55.640;37.532;2022-07-17T02:40:13;98716.13;;;16.92;61.87
43298;BME280;28892;55.640;37.532;2022-07-17T02:42:39;98715.44;;;16.97;61.77
43298;BME280;28892;55.640;37.532;2022-07-17T02:45:06;98716.00;;;16.99;61.45
43298;BME280;28892;55.640;37.532;2022-07-17T02:47:33;98726.72;;;16.99;61.69
43298;BME280;28892;55.640;37.532;2022-07-17T02:50:00;98718.81;;;17.04;61.61
43298;BME280;28892;55.640;37.532;2022-07-17T02:52:30;98717.63;;;17.12;61.08
43298;BME280;28892;55.640;37.532;2022-07-17T02:54:55;98708.41;;;17.20;60.75
43298;BME280;28892;55.640;37.532;2022-07-17T02:57:21;98719.38;;;17.18;60.91
43298;BME280;28892;55.640;37.532;2022-07-17T02:59:47;98715.66;;;16.95;62.01
43298;BME280;28892;55.640;37.532;2022-07-17T03:02:13;98717.41;;;16.89;61.90
43298;BME280;28892;55.640;37.532;2022-07-17T03:04:39;98722.19;;;16.87;62.14
43298;BME280;28892;55.640;37.532;2022-07-17T03:07:05;98717.66;;;16.88;61.90
43298;BME280;28892;55.640;37.532;2022-07-17T03:09:31;98711.25;;;16.89;61.86
43298;BME280;28892;55.640;37.532;2022-07-17T03:11:58;98723.69;;;16.95;61.47
43298;BME280;28892;55.640;37.532;2022-07-17T03:14:24;98725.47;;;17.01;61.17
43298;BME280;28892;55.640;37.532;2022-07-17T03:16:50;98713.47;;;17.04;60.98
43298;BME280;28892;55.640;37.532;2022-07-17T03:19:16;98718.13;;;17.09;60.87
43298;BME280;28892;55.640;37.532;2022-07-17T03:21:41;98712.91;;;17.02;60.92
43298;BME280;28892;55.640;37.532;2022-07-17T03:24:07;98706.50;;;17.03;61.03
43298;BME280;28892;55.640;37.532;2022-07-17T03:26:33;98719.72;;;16.98;61.19
43298;BME280;28892;55.640;37.532;2022-07-17T03:28:59;98711.59;;;16.93;61.24
43298;BME280;28892;55.640;37.532;2022-07-17T03:31:24;98711.97;;;16.84;62.23
43298;BME280;28892;55.640;37.532;2022-07-17T03:33:50;98715.09;;;17.05;61.30
43298;BME280;28892;55.640;37.532;2022-07-17T03:36:16;98716.72;;;17.06;61.42
43298;BME280;28892;55.640;37.532;2022-07-17T03:38:41;98711.69;;;16.98;61.82
43298;BME280;28892;55.640;37.532;2022-07-17T03:41:07;98718.00;;;17.03;61.75
43298;BME280;28892;55.640;37.532;2022-07-17T03:43:32;98722.56;;;17.03;62.18
43298;BME280;28892;55.640;37.532;2022-07-17T03:45:58;98717.53;;;16.95;62.55
43298;BME280;28892;55.640;37.532;2022-07-17T03:48:24;98720.00;;;16.96;62.43
43298;BME280;28892;55.640;37.532;2022-07-17T03:50:49;98716.59;;;17.01;61.90
43298;BME280;28892;55.640;37.532;2022-07-17T03:53:15;98721.16;;;17.12;61.55
43298;BME280;28892;55.640;37.532;2022-07-17T03:55:41;98727.06;;;17.14;62.27
43298;BME280;28892;55.640;37.532;2022-07-17T03:58:06;98736.25;;;17.18;61.88
43298;BME280;28892;55.640;37.532;2022-07-17T04:00:32;98728.78;;;17.21;61.47
43298;BME280;28892;55.640;37.532;2022-07-17T04:02:58;98729.25;;;17.29;61.40
43298;BME280;28892;55.640;37.532;2022-07-17T04:05:23;98734.31;;;17.43;60.66
43298;BME280;28892;55.640;37.532;2022-07-17T04:07:49;98730.56;;;17.56;60.74
43298;BME280;28892;55.640;37.532;2022-07-17T04:10:15;98734.13;;;17.62;60.24
43298;BME280;28892;55.640;37.532;2022-07-17T04:12:41;98730.41;;;17.63;60.41
43298;BME280;28892;55.640;37.532;2022-07-17T04:15:08;98723.91;;;17.76;60.25
43298;BME280;28892;55.640;37.532;2022-07-17T04:17:33;98726.88;;;17.91;60.23
43298;BME280;28892;55.640;37.532;2022-07-17T04:19:59;98725.00;;;18.09;59.82
43298;BME280;28892;55.640;37.532;2022-07-17T04:22:25;98721.53;;;18.25;58.61
43298;BME280;28892;55.640;37.532;2022-07-17T04:24:51;98723.63;;;18.40;58.02
43298;BME280;28892;55.640;37.532;2022-07-17T04:27:17;98712.63;;;18.42;57.53
43298;BME280;28892;55.640;37.532;2022-07-17T04:29:44;98715.66;;;18.46;57.32
43298;BME280;28892;55.640;37.532;2022-07-17T04:32:09;98712.78;;;18.52;56.97
43298;BME280;28892;55.640;37.532;2022-07-17T04:34:36;98715.31;;;18.59;56.75
43298;BME280;28892;55.640;37.532;2022-07-17T04:37:03;98718.16;;;18.69;55.81
43298;BME280;28892;55.640;37.532;2022-07-17T04:39:29;98720.66;;;18.76;56.09
43298;BME280;28892;55.640;37.532;2022-07-17T04:41:55;98719.44;;;18.89;55.45
43298;BME280;28892;55.640;37.532;2022-07-17T04:44:21;98716.03;;;18.94;54.96
43298;BME280;28892;55.640;37.532;2022-07-17T04:46:50;98705.19;;;19.06;54.50
43298;BME280;28892;55.640;37.532;2022-07-17T04:49:15;98707.50;;;19.19;53.67
43298;BME280;28892;55.640;37.532;2022-07-17T04:51:41;98707.28;;;19.26;53.54
43298;BME280;28892;55.640;37.532;2022-07-17T04:54:07;98719.94;;;19.25;53.88
43298;BME280;28892;55.640;37.532;2022-07-17T04:56:33;98711.34;;;19.29;53.25
43298;BME280;28892;55.640;37.532;2022-07-17T04:58:59;98711.16;;;19.35;52.80
43298;BME280;28892;55.640;37.532;2022-07-17T05:01:24;98706.41;;;19.43;51.89
43298;BME280;28892;55.640;37.532;2022-07-17T05:03:50;98712.03;;;19.41;52.17
43298;BME280;28892;55.640;37.532;2022-07-17T05:06:16;98707.63;;;19.57;52.28
43298;BME280;28892;55.640;37.532;2022-07-17T05:08:42;98711.72;;;19.65;51.55
43298;BME280;28892;55.640;37.532;2022-07-17T05:11:10;98713.41;;;19.71;51.19
43298;BME280;28892;55.640;37.532;2022-07-17T05:13:36;98713.72;;;19.75;51.09
43298;BME280;28892;55.640;37.532;2022-07-17T05:16:01;98715.63;;;19.79;49.81
43298;BME280;28892;55.640;37.532;2022-07-17T05:18:27;98717.75;;;19.77;50.15
43298;BME280;28892;55.640;37.532;2022-07-17T05:20:53;98718.31;;;19.79;50.19
43298;BME280;28892;55.640;37.532;2022-07-17T05:23:18;98721.81;;;19.80;50.27
43298;BME280;28892;55.640;37.532;2022-07-17T05:25:44;98723.66;;;19.74;50.08
43298;BME280;28892;55.640;37.532;2022-07-17T05:28:10;98722.44;;;19.87;50.62
43298;BME280;28892;55.640;37.532;2022-07-17T05:30:35;98720.41;;;20.00;51.27
43298;BME280;28892;55.640;37.532;2022-07-17T05:33:01;98723.50;;;20.19;50.75
43298;BME280;28892;55.640;37.532;2022-07-17T05:35:26;98719.81;;;20.30;50.45
43298;BME280;28892;55.640;37.532;2022-07-17T05:37:52;98717.19;;;20.35;49.17
43298;BME280;28892;55.640;37.532;2022-07-17T05:40:18;98723.09;;;20.32;50.39
43298;BME280;28892;55.640;37.532;2022-07-17T05:42:44;98718.03;;;20.41;49.68
43298;BME280;28892;55.640;37.532;2022-07-17T05:45:10;98716.47;;;20.50;49.07
43298;BME280;28892;55.640;37.532;2022-07-17T05:47:40;98710.31;;;20.60;48.43
43298;BME280;28892;55.640;37.532;2022-07-17T05:50:06;98712.78;;;20.67;48.26
43298;BME280;28892;55.640;37.532;2022-07-17T05:52:32;98710.56;;;20.59;47.13
43298;BME280;28892;55.640;37.532;2022-07-17T05:54:58;98710.50;;;20.91;47.11
43298;BME280;28892;55.640;37.532;2022-07-17T05:57:23;98706.81;;;21.08;46.82
43298;BME280;28892;55.640;37.532;2022-07-17T05:59:49;98708.75;;;21.33;46.30
43298;BME280;28892;55.640;37.532;2022-07-17T06:02:15;98713.41;;;21.64;45.37
43298;BME280;28892;55.640;37.532;2022-07-17T06:04:40;98710.22;;;21.93;45.59
43298;BME280;28892;55.640;37.532;2022-07-17T06:07:13;98713.72;;;22.25;44.59
43298;BME280;28892;55.640;37.532;2022-07-17T06:09:39;98712.34;;;22.43;43.80
43298;BME280;28892;55.640;37.532;2022-07-17T06:12:05;98708.00;;;22.47;44.07
43298;BME280;28892;55.640;37.532;2022-07-17T06:14:30;98706.91;;;22.48;43.48
43298;BME280;28892;55.640;37.532;2022-07-17T06:16:56;98713.44;;;22.42;43.16
43298;BME280;28892;55.640;37.532;2022-07-17T06:19:22;98713.72;;;22.25;43.54
43298;BME280;28892;55.640;37.532;2022-07-17T06:21:47;98710.50;;;22.07;43.67
43298;BME280;28892;55.640;37.532;2022-07-17T06:24:13;98717.53;;;22.13;42.91
43298;BME280;28892;55.640;37.532;2022-07-17T06:26:39;98707.78;;;22.43;42.85
43298;BME280;28892;55.640;37.532;2022-07-17T06:29:04;98711.78;;;22.46;42.74
43298;BME280;28892;55.640;37.532;2022-07-17T06:31:30;98709.69;;;21.96;43.59
43298;BME280;28892;55.640;37.532;2022-07-17T06:33:56;98709.06;;;21.42;44.74
43298;BME280;28892;55.640;37.532;2022-07-17T06:36:21;98704.56;;;21.69;44.06
43298;BME280;28892;55.640;37.532;2022-07-17T06:38:47;98692.13;;;22.14;43.41
43298;BME280;28892;55.640;37.532;2022-07-17T06:41:13;98695.31;;;22.58;43.84
43298;BME280;28892;55.640;37.532;2022-07-17T06:43:38;98687.91;;;22.89;42.69
43298;BME280;28892;55.640;37.532;2022-07-17T06:46:04;98692.41;;;23.15;42.25
43298;BME280;28892;55.640;37.532;2022-07-17T06:48:30;98697.50;;;23.22;41.90
43298;BME280;28892;55.640;37.532;2022-07-17T06:50:55;98686.34;;;23.39;40.85
43298;BME280;28892;55.640;37.532;2022-07-17T06:53:21;98679.50;;;22.96;41.29
43298;BME280;28892;55.640;37.532;2022-07-17T06:55:47;98683.31;;;22.90;41.35
43298;BME280;28892;55.640;37.532;2022-07-17T06:58:12;98679.28;;;22.87;41.21
43298;BME280;28892;55.640;37.532;2022-07-17T07:00:38;98688.03;;;22.53;42.32
43298;BME280;28892;55.640;37.532;2022-07-17T07:03:04;98679.66;;;22.50;41.99
43298;BME280;28892;55.640;37.532;2022-07-17T07:05:30;98675.38;;;22.23;42.58
43298;BME280;28892;55.640;37.532;2022-07-17T07:07:56;98674.25;;;22.39;43.04
43298;BME280;28892;55.640;37.532;2022-07-17T07:10:22;98681.16;;;22.92;41.00
43298;BME280;28892;55.640;37.532;2022-07-17T07:12:47;98683.66;;;22.68;42.63
43298;BME280;28892;55.640;37.532;2022-07-17T07:15:13;98686.13;;;23.25;42.18
43298;BME280;28892;55.640;37.532;2022-07-17T07:17:40;98685.94;;;23.56;41.59
43298;BME280;28892;55.640;37.532;2022-07-17T07:20:08;98682.63;;;23.69;40.79
43298;BME280;28892;55.640;37.532;2022-07-17T07:22:34;98678.25;;;23.74;40.58
43298;BME280;28892;55.640;37.532;2022-07-17T07:25:00;98690.63;;;23.85;40.50
43298;BME280;28892;55.640;37.532;2022-07-17T07:27:26;98690.25;;;23.97;39.83
43298;BME280;28892;55.640;37.532;2022-07-17T07:29:51;98691.41;;;24.20;39.21
43298;BME280;28892;55.640;37.532;2022-07-17T07:32:17;98692.00;;;24.17;39.45
43298;BME280;28892;55.640;37.532;2022-07-17T07:34:43;98679.00;;;23.84;39.33
43298;BME280;28892;55.640;37.532;2022-07-17T07:37:09;98682.13;;;23.12;40.44
43298;BME280;28892;55.640;37.532;2022-07-17T07:39:34;98678.66;;;23.06;39.87
43298;BME280;28892;55.640;37.532;2022-07-17T07:42:00;98678.66;;;23.01;39.40
43298;BME280;28892;55.640;37.532;2022-07-17T07:44:26;98669.91;;;23.30;39.52
43298;BME280;28892;55.640;37.532;2022-07-17T07:46:51;98683.94;;;23.72;40.02
43298;BME280;28892;55.640;37.532;2022-07-17T07:49:17;98681.28;;;24.02;40.47
43298;BME280;28892;55.640;37.532;2022-07-17T07:51:43;98675.81;;;23.72;38.19
43298;BME280;28892;55.640;37.532;2022-07-17T07:54:09;98687.38;;;22.93;39.90
43298;BME280;28892;55.640;37.532;2022-07-17T07:56:35;98693.22;;;22.03;41.96
43298;BME280;28892;55.640;37.532;2022-07-17T07:59:02;98697.53;;;21.73;42.25
43298;BME280;28892;55.640;37.532;2022-07-17T08:01:28;98691.53;;;21.55;42.66
43298;BME280;28892;55.640;37.532;2022-07-17T08:03:54;98694.22;;;21.40;43.20
43298;BME280;28892;55.640;37.532;2022-07-17T08:06:20;98703.19;;;21.71;42.95
43298;BME280;28892;55.640;37.532;2022-07-17T08:08:45;98704.84;;;22.09;42.88
43298;BME280;28892;55.640;37.532;2022-07-17T08:11:11;98707.25;;;22.15;41.52
43298;BME280;28892;55.640;37.532;2022-07-17T08:13:37;98703.16;;;22.65;41.09
43298;BME280;28892;55.640;37.532;2022-07-17T08:16:03;98701.47;;;23.45;38.47
43298;BME280;28892;55.640;37.532;2022-07-17T08:18:28;98695.59;;;23.72;39.27
43298;BME280;28892;55.640;37.532;2022-07-17T08:20:54;98692.81;;;23.83;38.79
43298;BME280;28892;55.640;37.532;2022-07-17T08:23:20;98691.53;;;23.75;37.78
43298;BME280;28892;55.640;37.532;2022-07-17T08:25:46;98698.16;;;23.88;37.62
43298;BME280;28892;55.640;37.532;2022-07-17T08:28:14;98680.81;;;23.89;38.49
43298;BME280;28892;55.640;37.532;2022-07-17T08:30:40;98690.63;;;24.20;36.95
43298;BME280;28892;55.640;37.532;2022-07-17T08:33:08;98691.84;;;24.33;37.11
43298;BME280;28892;55.640;37.532;2022-07-17T08:35:35;98688.00;;;24.39;37.39
43298;BME280;28892;55.640;37.532;2022-07-17T08:38:01;98681.91;;;23.93;34.25
43298;BME280;28892;55.640;37.532;2022-07-17T08:40:33;98695.63;;;24.37;34.10
43298;BME280;28892;55.640;37.532;2022-07-17T08:43:00;98700.06;;;24.76;34.74
43298;BME280;28892;55.640;37.532;2022-07-17T08:45:26;98690.72;;;24.09;36.31
43298;BME280;28892;55.640;37.532;2022-07-17T08:47:54;98694.06;;;23.96;36.65
43298;BME280;28892;55.640;37.532;2022-07-17T08:50:33;98680.94;;;24.13;36.28
43298;BME280;28892;55.640;37.532;2022-07-17T08:53:03;98692.69;;;23.64;37.05
43298;BME280;28892;55.640;37.532;2022-07-17T08:55:29;98693.88;;;23.47;37.39
43298;BME280;28892;55.640;37.532;2022-07-17T08:57:55;98709.00;;;23.53;36.42
43298;BME280;28892;55.640;37.532;2022-07-17T09:00:22;98709.66;;;23.29;37.79
43298;BME280;28892;55.640;37.532;2022-07-17T09:02:59;98715.69;;;23.06;38.24
43298;BME280;28892;55.640;37.532;2022-07-17T09:05:28;98718.28;;;22.55;39.49
43298;BME280;28892;55.640;37.532;2022-07-17T09:07:55;98716.94;;;22.58;39.02
43298;BME280;28892;55.640;37.532;2022-07-17T09:10:38;98719.38;;;22.44;39.09
43298;BME280;28892;55.640;37.532;2022-07-17T09:15:42;98717.78;;;22.32;40.05
43298;BME280;28892;55.640;37.532;2022-07-17T09:18:08;98720.19;;;22.39;39.95
43298;BME280;28892;55.640;37.532;2022-07-17T09:20:34;98716.13;;;22.47;40.81
43298;BME280;28892;55.640;37.532;2022-07-17T09:23:03;98707.06;;;23.03;39.21
43298;BME280;28892;55.640;37.532;2022-07-17T09:25:43;98728.06;;;23.33;38.93
43298;BME280;28892;55.640;37.532;2022-07-17T09:28:11;98717.63;;;23.95;37.75
43298;BME280;28892;55.640;37.532;2022-07-17T09:30:40;98726.59;;;24.55;36.51
43298;BME280;28892;55.640;37.532;2022-07-17T09:33:10;98727.56;;;24.40;36.48
43298;BME280;28892;55.640;37.532;2022-07-17T09:35:47;98720.13;;;24.80;35.72
43298;BME280;28892;55.640;37.532;2022-07-17T09:38:32;98714.97;;;24.79;35.75
43298;BME280;28892;55.640;37.532;2022-07-17T09:41:08;98711.16;;;24.26;35.09
43298;BME280;28892;55.640;37.532;2022-07-17T09:44:00;98723.13;;;23.40;36.84
43298;BME280;28892;55.640;37.532;2022-07-17T09:46:31;98718.88;;;23.18;38.78
43298;BME280;28892;55.640;37.532;2022-07-17T09:49:00;98709.50;;;23.00;38.94
43298;BME280;28892;55.640;37.532;2022-07-17T09:51:28;98703.44;;;22.53;39.62
43298;BME280;28892;55.640;37.532;2022-07-17T09:53:59;98700.72;;;22.42;40.29
43298;BME280;28892;55.640;37.532;2022-07-17T09:56:29;98704.00;;;22.29;40.46
43298;BME280;28892;55.640;37.532;2022-07-17T09:59:00;98705.09;;;22.17;42.04
43298;BME280;28892;55.640;37.532;2022-07-17T10:01:27;98711.03;;;22.14;41.11
43298;BME280;28892;55.640;37.532;2022-07-17T10:03:53;98716.41;;;22.45;41.31
43298;BME280;28892;55.640;37.532;2022-07-17T10:06:23;98713.63;;;22.87;41.26
43298;BME280;28892;55.640;37.532;2022-07-17T10:08:51;98728.13;;;23.12;40.58
43298;BME280;28892;55.640;37.532;2022-07-17T10:11:19;98727.59;;;23.05;40.15
43298;BME280;28892;55.640;37.532;2022-07-17T10:13:46;98734.44;;;22.81;39.31
43298;BME280;28892;55.640;37.532;2022-07-17T10:16:13;98728.03;;;22.56;39.06
43298;BME280;28892;55.640;37.532;2022-07-17T10:18:44;98725.03;;;22.47;41.02
43298;BME280;28892;55.640;37.532;2022-07-17T10:29:03;98718.00;;;23.38;39.19
43298;BME280;28892;55.640;37.532;2022-07-17T10:31:32;98714.50;;;22.56;40.29
43298;BME280;28892;55.640;37.532;2022-07-17T10:34:04;98713.72;;;22.45;40.41
43298;BME280;28892;55.640;37.532;2022-07-17T10:36:36;98712.00;;;22.81;39.61
43298;BME280;28892;55.640;37.532;2022-07-17T10:39:22;98712.47;;;23.09;39.10
43298;BME280;28892;55.640;37.532;2022-07-17T10:42:01;98721.00;;;23.37;38.93
43298;BME280;28892;55.640;37.532;2022-07-17T10:44:29;98718.94;;;23.63;39.31
43298;BME280;28892;55.640;37.532;2022-07-17T10:46:56;98712.00;;;24.21;39.05
43298;BME280;28892;55.640;37.532;2022-07-17T10:49:23;98701.63;;;24.58;37.69
43298;BME280;28892;55.640;37.532;2022-07-17T10:51:49;98713.31;;;24.83;37.59
43298;BME280;28892;55.640;37.532;2022-07-17T10:54:17;98707.38;;;25.44;36.79
43298;BME280;28892;55.640;37.532;2022-07-17T10:56:43;98705.75;;;25.81;34.62
43298;BME280;28892;55.640;37.532;2022-07-17T10:59:12;98699.44;;;25.86;34.36
43298;BME280;28892;55.640;37.532;2022-07-17T11:01:39;98690.78;;;25.84;34.18
43298;BME280;28892;55.640;37.532;2022-07-17T11:04:05;98685.28;;;26.36;34.92
43298;BME280;28892;55.640;37.532;2022-07-17T11:06:37;98674.63;;;26.40;34.47
43298;BME280;28892;55.640;37.532;2022-07-17T11:09:10;98679.16;;;26.72;33.21
43298;BME280;28892;55.640;37.532;2022-07-17T11:11:44;98684.91;;;26.99;32.73
43298;BME280;28892;55.640;37.532;2022-07-17T11:16:44;98685.00;;;25.71;33.13
43298;BME280;28892;55.640;37.532;2022-07-17T11:19:10;98696.56;;;25.19;34.57
43298;BME280;28892;55.640;37.532;2022-07-17T11:21:49;98698.56;;;25.33;34.55
43298;BME280;28892;55.640;37.532;2022-07-17T11:24:15;98689.69;;;25.08;34.22
43298;BME280;28892;55.640;37.532;2022-07-17T11:26:42;98699.59;;;24.45;35.70
43298;BME280;28892;55.640;37.532;2022-07-17T11:29:10;98700.72;;;24.38;35.63
43298;BME280;28892;55.640;37.532;2022-07-17T11:31:36;98693.78;;;24.81;34.98
43298;BME280;28892;55.640;37.532;2022-07-17T11:34:05;98690.91;;;25.35;34.20
43298;BME280;28892;55.640;37.532;2022-07-17T11:36:34;98690.34;;;25.76;32.85
43298;BME280;28892;55.640;37.532;2022-07-17T11:39:18;98693.63;;;26.26;33.09
43298;BME280;28892;55.640;37.532;2022-07-17T11:41:47;98692.84;;;26.67;32.67
43298;BME280;28892;55.640;37.532;2022-07-17T11:44:15;98689.97;;;27.42;32.27
43298;BME280;28892;55.640;37.532;2022-07-17T11:46:44;98690.59;;;27.85;32.73
43298;BME280;28892;55.640;37.532;2022-07-17T11:49:12;98683.16;;;28.22;32.00
43298;BME280;28892;55.640;37.532;2022-07-17T11:51:48;98678.69;;;28.26;29.36
43298;BME280;28892;55.640;37.532;2022-07-17T11:54:16;98692.09;;;27.31;31.85
43298;BME280;28892;55.640;37.532;2022-07-17T11:56:57;98690.03;;;26.72;31.26
43298;BME280;28892;55.640;37.532;2022-07-17T11:59:28;98689.31;;;26.39;30.80
43298;BME280;28892;55.640;37.532;2022-07-17T12:01:55;98686.63;;;25.72;32.79
43298;BME280;28892;55.640;37.532;2022-07-17T12:04:21;98680.66;;;25.32;32.80
43298;BME280;28892;55.640;37.532;2022-07-17T12:06:59;98684.84;;;25.82;31.21
43298;BME280;28892;55.640;37.532;2022-07-17T12:09:29;98679.72;;;25.42;29.79
43298;BME280;28892;55.640;37.532;2022-07-17T12:11:59;98671.94;;;25.35;30.15
43298;BME280;28892;55.640;37.532;2022-07-17T12:14:25;98674.94;;;25.72;30.45
43298;BME280;28892;55.640;37.532;2022-07-17T12:16:51;98679.63;;;25.85;30.41
43298;BME280;28892;55.640;37.532;2022-07-17T12:19:19;98665.31;;;25.79;30.04
43298;BME280;28892;55.640;37.532;2022-07-17T12:21:58;98676.53;;;25.73;30.22
43298;BME280;28892;55.640;37.532;2022-07-17T12:24:26;98677.44;;;25.68;30.54
43298;BME280;28892;55.640;37.532;2022-07-17T12:26:53;98677.66;;;25.72;29.75
43298;BME280;28892;55.640;37.532;2022-07-17T12:29:19;98678.53;;;25.48;32.44
43298;BME280;28892;55.640;37.532;2022-07-17T12:31:45;98678.69;;;25.57;31.77
43298;BME280;28892;55.640;37.532;2022-07-17T12:34:11;98665.50;;;25.69;31.64
43298;BME280;28892;55.640;37.532;2022-07-17T12:36:37;98669.00;;;25.70;30.84
43298;BME280;28892;55.640;37.532;2022-07-17T12:39:03;98671.75;;;25.50;30.35
43298;BME280;28892;55.640;37.532;2022-07-17T12:41:28;98663.78;;;25.16;30.54
43298;BME280;28892;55.640;37.532;2022-07-17T12:43:54;98670.03;;;24.73;32.24
43298;BME280;28892;55.640;37.532;2022-07-17T12:46:20;98664.19;;;24.60;30.73
43298;BME280;28892;55.640;37.532;2022-07-17T12:48:46;98668.09;;;24.73;30.06
43298;BME280;28892;55.640;37.532;2022-07-17T12:51:13;98663.72;;;24.53;30.93
43298;BME280;28892;55.640;37.532;2022-07-17T12:53:43;98658.47;;;24.62;30.48
43298;BME280;28892;55.640;37.532;2022-07-17T12:56:10;98658.25;;;24.58;30.10
43298;BME280;28892;55.640;37.532;2022-07-17T12:58:36;98656.97;;;24.50;30.65
43298;BME280;28892;55.640;37.532;2022-07-17T13:01:04;98652.59;;;24.54;30.25
43298;BME280;28892;55.640;37.532;2022-07-17T13:03:30;98647.31;;;24.44;29.72